createdAt,value
2017-06-12T00:00:16.362Z,928.7
2017-06-12T00:00:44.600Z,928.74
2017-06-12T00:01:12.896Z,928.71
2017-06-12T00:02:24.099Z,928.74
2017-06-12T00:02:52.413Z,928.7
2017-06-12T00:03:20.752Z,928.71
2017-06-12T00:03:49.068Z,928.67
2017-06-12T00:04:17.213Z,928.68
2017-06-12T00:04:45.417Z,928.66
2017-06-12T00:05:13.596Z,928.62
2017-06-12T00:05:41.726Z,928.64
2017-06-12T00:06:09.932Z,928.64
2017-06-12T00:06:38.122Z,928.63
2017-06-12T00:07:06.447Z,928.62
2017-06-12T00:08:17.665Z,928.66
2017-06-12T00:08:45.966Z,928.65
2017-06-12T00:09:14.164Z,928.62
2017-06-12T00:09:42.384Z,928.61
2017-06-12T00:10:10.667Z,928.63
2017-06-12T00:10:38.747Z,928.61
2017-06-12T00:11:07.034Z,928.62
2017-06-12T00:11:35.070Z,928.63
2017-06-12T00:12:03.428Z,928.62
2017-06-12T00:12:31.481Z,928.64
2017-06-12T00:12:59.687Z,928.63
2017-06-12T00:14:11.054Z,928.62
2017-06-12T00:14:39.321Z,928.66
2017-06-12T00:15:07.664Z,928.63
2017-06-12T00:15:36.031Z,928.64
2017-06-12T00:16:04.173Z,928.68
2017-06-12T00:16:32.405Z,928.68
2017-06-12T00:17:00.684Z,928.7
2017-06-12T00:17:28.908Z,928.7
2017-06-12T00:17:57.259Z,928.71
2017-06-12T00:18:25.683Z,928.7
2017-06-12T00:18:53.996Z,928.72
2017-06-12T00:20:05.308Z,928.71
2017-06-12T00:20:33.570Z,928.74
2017-06-12T00:21:01.682Z,928.76
2017-06-12T00:21:29.996Z,928.72
2017-06-12T00:21:58.037Z,928.71
2017-06-12T00:22:26.012Z,928.73
2017-06-12T00:22:53.963Z,928.74
2017-06-12T00:23:21.998Z,928.74
2017-06-12T00:23:50.347Z,928.74
2017-06-12T00:24:18.673Z,928.73
2017-06-12T00:24:46.970Z,928.76
2017-06-12T00:25:58.265Z,928.74
2017-06-12T00:26:26.435Z,928.78
2017-06-12T00:26:54.722Z,928.76
2017-06-12T00:27:23.037Z,928.79
2017-06-12T00:27:51.267Z,928.82
2017-06-12T00:28:19.521Z,928.83
2017-06-12T00:28:47.670Z,928.79
2017-06-12T00:29:15.801Z,928.8
2017-06-12T00:29:44.103Z,928.82
2017-06-12T00:30:12.255Z,928.79
2017-06-12T00:30:40.555Z,928.8
2017-06-12T00:31:51.857Z,928.77
2017-06-12T00:32:20.117Z,928.79
2017-06-12T00:32:48.126Z,928.81
2017-06-12T00:33:16.441Z,928.81
2017-06-12T00:33:44.577Z,928.79
2017-06-12T00:34:12.646Z,928.84
2017-06-12T00:34:40.692Z,928.81
2017-06-12T00:35:08.918Z,928.81
2017-06-12T00:35:37.131Z,928.77
2017-06-12T00:36:05.275Z,928.79
2017-06-12T00:36:33.481Z,928.81
2017-06-12T00:37:44.595Z,928.76
2017-06-12T00:38:12.866Z,928.82
2017-06-12T00:38:41.068Z,928.8
2017-06-12T00:39:09.382Z,928.81
2017-06-12T00:39:37.612Z,928.8
2017-06-12T00:40:06.327Z,928.78
2017-06-12T00:40:34.473Z,928.79
2017-06-12T00:41:02.517Z,928.8
2017-06-12T00:41:30.634Z,928.78
2017-06-12T00:41:58.777Z,928.79
2017-06-12T00:42:27.644Z,928.81
2017-06-12T00:43:38.857Z,928.82
2017-06-12T00:44:07.029Z,928.82
2017-06-12T00:44:35.135Z,928.79
2017-06-12T00:45:03.363Z,928.79
2017-06-12T00:45:31.598Z,928.81
2017-06-12T00:45:59.770Z,928.81
2017-06-12T00:46:28.007Z,928.82
2017-06-12T00:46:56.046Z,928.82
2017-06-12T00:47:24.357Z,928.8
2017-06-12T00:47:52.690Z,928.81
2017-06-12T00:48:20.899Z,928.84
2017-06-12T00:49:32.207Z,928.83
2017-06-12T00:50:00.470Z,928.85
2017-06-12T00:50:28.676Z,928.83
2017-06-12T00:50:56.809Z,928.87
2017-06-12T00:51:25.051Z,928.85
2017-06-12T00:51:53.319Z,928.84
2017-06-12T00:52:21.471Z,928.82
2017-06-12T00:52:49.513Z,928.83
2017-06-12T00:53:17.820Z,928.83
2017-06-12T00:53:46.153Z,928.8
2017-06-12T00:54:14.451Z,928.82
2017-06-12T00:55:25.757Z,928.8
2017-06-12T00:55:53.924Z,928.78
2017-06-12T00:56:22.125Z,928.8
2017-06-12T00:56:50.255Z,928.75
2017-06-12T00:57:18.490Z,928.77
2017-06-12T00:57:46.752Z,928.79
2017-06-12T00:58:14.793Z,928.8
2017-06-12T00:58:43.023Z,928.79
2017-06-12T00:59:11.327Z,928.77
2017-06-12T00:59:39.568Z,928.76
2017-06-12T01:00:07.867Z,928.73
2017-06-12T01:01:18.889Z,928.74
2017-06-12T01:01:47.165Z,928.76
2017-06-12T01:02:15.470Z,928.73
2017-06-12T01:02:43.789Z,928.71
2017-06-12T01:03:11.930Z,928.74
2017-06-12T01:03:40.197Z,928.73
2017-06-12T01:04:08.352Z,928.72
2017-06-12T01:04:36.572Z,928.69
2017-06-12T01:05:04.785Z,928.7
2017-06-12T01:05:32.931Z,928.67
2017-06-12T01:06:01.227Z,928.68
2017-06-12T01:07:12.438Z,928.66
2017-06-12T01:07:40.699Z,928.66
2017-06-12T01:08:08.800Z,928.68
2017-06-12T01:08:37.112Z,928.66
2017-06-12T01:09:05.346Z,928.7
2017-06-12T01:09:33.512Z,928.65
2017-06-12T01:10:01.652Z,928.67
2017-06-12T01:10:29.787Z,928.65
2017-06-12T01:10:58.004Z,928.66
2017-06-12T01:11:26.055Z,928.65
2017-06-12T01:11:54.263Z,928.71
2017-06-12T01:13:05.564Z,928.65
2017-06-12T01:13:33.830Z,928.67
2017-06-12T01:14:02.126Z,928.71
2017-06-12T01:14:30.353Z,928.62
2017-06-12T01:14:58.496Z,928.65
2017-06-12T01:15:26.670Z,928.65
2017-06-12T01:15:54.715Z,928.62
2017-06-12T01:16:22.964Z,928.65
2017-06-12T01:16:51.246Z,928.62
2017-06-12T01:17:19.587Z,928.63
2017-06-12T01:17:47.888Z,928.64
2017-06-12T01:18:59.100Z,928.64
2017-06-12T01:19:27.181Z,928.69
2017-06-12T01:19:55.380Z,928.64
2017-06-12T01:20:23.603Z,928.64
2017-06-12T01:20:51.836Z,928.61
2017-06-12T01:21:20.098Z,928.58
2017-06-12T01:21:48.145Z,928.62
2017-06-12T01:22:16.521Z,928.61
2017-06-12T01:22:44.828Z,928.59
2017-06-12T01:23:13.069Z,928.58
2017-06-12T01:23:41.176Z,928.59
2017-06-12T01:24:52.292Z,928.59
2017-06-12T01:25:20.463Z,928.57
2017-06-12T01:25:48.664Z,928.58
2017-06-12T01:26:16.887Z,928.56
2017-06-12T01:26:45.119Z,928.56
2017-06-12T01:27:13.287Z,928.57
2017-06-12T01:27:41.424Z,928.55
2017-06-12T01:28:09.467Z,928.58
2017-06-12T01:28:37.773Z,928.56
2017-06-12T01:29:06.015Z,928.56
2017-06-12T01:29:34.222Z,928.6
2017-06-12T01:30:45.531Z,928.57
2017-06-12T01:31:13.798Z,928.57
2017-06-12T01:31:42.000Z,928.58
2017-06-12T01:32:10.221Z,928.58
2017-06-12T01:32:38.461Z,928.56
2017-06-12T01:33:06.632Z,928.55
2017-06-12T01:33:34.867Z,928.57
2017-06-12T01:34:02.901Z,928.56
2017-06-12T01:34:31.213Z,928.57
2017-06-12T01:34:59.457Z,928.57
2017-06-12T01:35:27.658Z,928.55
2017-06-12T01:36:38.965Z,928.55
2017-06-12T01:37:07.139Z,928.56
2017-06-12T01:37:35.344Z,928.54
2017-06-12T01:38:03.666Z,928.51
2017-06-12T01:38:31.811Z,928.55
2017-06-12T01:38:59.983Z,928.53
2017-06-12T01:39:28.128Z,928.53
2017-06-12T01:39:56.168Z,928.53
2017-06-12T01:40:24.288Z,928.53
2017-06-12T01:40:52.621Z,928.55
2017-06-12T01:41:20.914Z,928.53
2017-06-12T01:42:32.132Z,928.53
2017-06-12T01:43:00.398Z,928.51
2017-06-12T01:43:28.697Z,928.53
2017-06-12T01:43:57.015Z,928.51
2017-06-12T01:44:25.157Z,928.54
2017-06-12T01:44:54.085Z,928.54
2017-06-12T01:45:22.230Z,928.51
2017-06-12T01:45:50.362Z,928.53
2017-06-12T01:46:18.481Z,928.47
2017-06-12T01:46:46.817Z,928.49
2017-06-12T01:47:15.118Z,928.5
2017-06-12T01:48:26.429Z,928.47
2017-06-12T01:48:54.593Z,928.47
2017-06-12T01:49:22.698Z,928.47
2017-06-12T01:49:51.024Z,928.49
2017-06-12T01:50:19.257Z,928.48
2017-06-12T01:50:47.663Z,928.45
2017-06-12T01:51:15.805Z,928.45
2017-06-12T01:51:43.847Z,928.48
2017-06-12T01:52:12.157Z,928.46
2017-06-12T01:52:40.400Z,928.48
2017-06-12T01:53:08.700Z,928.49
2017-06-12T01:54:20.001Z,928.46
2017-06-12T01:54:48.169Z,928.45
2017-06-12T01:55:16.278Z,928.46
2017-06-12T01:55:44.304Z,928.47
2017-06-12T01:56:12.443Z,928.47
2017-06-12T01:56:40.539Z,928.45
2017-06-12T01:57:08.765Z,928.45
2017-06-12T01:57:36.898Z,928.44
2017-06-12T01:58:05.113Z,928.45
2017-06-12T01:58:33.169Z,928.46
2017-06-12T01:59:01.374Z,928.47
2017-06-12T02:00:12.704Z,928.45
2017-06-12T02:00:40.783Z,928.44
2017-06-12T02:01:08.886Z,928.42
2017-06-12T02:01:37.102Z,928.48
2017-06-12T02:02:05.244Z,928.41
2017-06-12T02:02:33.421Z,928.39
2017-06-12T02:03:01.653Z,928.42
2017-06-12T02:03:29.781Z,928.38
2017-06-12T02:03:57.999Z,928.39
2017-06-12T02:04:26.147Z,928.36
2017-06-12T02:04:54.443Z,928.38
2017-06-12T02:06:05.747Z,928.4
2017-06-12T02:06:34.017Z,928.4
2017-06-12T02:07:02.224Z,928.37
2017-06-12T02:07:30.540Z,928.35
2017-06-12T02:07:58.776Z,928.38
2017-06-12T02:08:26.943Z,928.35
2017-06-12T02:08:55.178Z,928.34
2017-06-12T02:09:23.313Z,928.36
2017-06-12T02:09:51.621Z,928.34
2017-06-12T02:10:19.860Z,928.31
2017-06-12T02:10:48.158Z,928.33
2017-06-12T02:11:59.461Z,928.35
2017-06-12T02:12:27.635Z,928.31
2017-06-12T02:12:55.932Z,928.32
2017-06-12T02:13:24.156Z,928.33
2017-06-12T02:13:52.298Z,928.32
2017-06-12T02:14:20.472Z,928.3
2017-06-12T02:14:48.617Z,928.26
2017-06-12T02:15:16.654Z,928.28
2017-06-12T02:15:44.965Z,928.29
2017-06-12T02:16:13.206Z,928.27
2017-06-12T02:16:41.314Z,928.29
2017-06-12T02:17:52.622Z,928.29
2017-06-12T02:18:20.883Z,928.28
2017-06-12T02:18:49.179Z,928.31
2017-06-12T02:19:17.495Z,928.28
2017-06-12T02:19:45.640Z,928.25
2017-06-12T02:20:13.815Z,928.29
2017-06-12T02:20:41.957Z,928.3
2017-06-12T02:21:10.183Z,928.31
2017-06-12T02:21:38.486Z,928.26
2017-06-12T02:22:06.542Z,928.28
2017-06-12T02:22:34.840Z,928.28
2017-06-12T02:23:46.143Z,928.27
2017-06-12T02:24:14.405Z,928.29
2017-06-12T02:24:42.702Z,928.3
2017-06-12T02:25:10.920Z,928.28
2017-06-12T02:25:39.154Z,928.29
2017-06-12T02:26:07.320Z,928.27
2017-06-12T02:26:35.458Z,928.32
2017-06-12T02:27:03.586Z,928.31
2017-06-12T02:27:31.794Z,928.31
2017-06-12T02:27:59.936Z,928.28
2017-06-12T02:28:28.043Z,928.29
2017-06-12T02:29:39.155Z,928.3
2017-06-12T02:30:07.330Z,928.3
2017-06-12T02:30:35.628Z,928.3
2017-06-12T02:31:03.944Z,928.3
2017-06-12T02:31:32.183Z,928.27
2017-06-12T02:32:00.346Z,928.29
2017-06-12T02:32:28.485Z,928.29
2017-06-12T02:32:56.615Z,928.26
2017-06-12T02:33:24.829Z,928.25
2017-06-12T02:33:53.071Z,928.22
2017-06-12T02:34:21.369Z,928.27
2017-06-12T02:35:32.581Z,928.24
2017-06-12T02:36:00.752Z,928.24
2017-06-12T02:36:28.951Z,928.23
2017-06-12T02:36:57.083Z,928.22
2017-06-12T02:37:25.226Z,928.25
2017-06-12T02:37:53.392Z,928.25
2017-06-12T02:38:21.535Z,928.25
2017-06-12T02:38:49.382Z,928.23
2017-06-12T02:39:17.595Z,928.27
2017-06-12T02:39:45.842Z,928.22
2017-06-12T02:40:14.390Z,928.22
2017-06-12T02:41:25.591Z,928.25
2017-06-12T02:41:53.856Z,928.24
2017-06-12T02:42:22.150Z,928.26
2017-06-12T02:42:50.372Z,928.23
2017-06-12T02:43:18.511Z,928.23
2017-06-12T02:43:46.683Z,928.23
2017-06-12T02:44:14.824Z,928.25
2017-06-12T02:44:43.052Z,928.23
2017-06-12T02:45:11.354Z,928.28
2017-06-12T02:45:39.500Z,928.23
2017-06-12T02:46:07.804Z,928.26
2017-06-12T02:47:19.103Z,928.24
2017-06-12T02:47:47.367Z,928.23
2017-06-12T02:48:15.661Z,928.2
2017-06-12T02:48:43.975Z,928.26
2017-06-12T02:49:12.207Z,928.23
2017-06-12T02:49:40.471Z,928.23
2017-06-12T02:50:08.612Z,928.23
2017-06-12T02:50:36.645Z,928.22
2017-06-12T02:51:04.861Z,928.19
2017-06-12T02:51:32.913Z,928.25
2017-06-12T02:52:01.111Z,928.21
2017-06-12T02:53:12.227Z,928.2
2017-06-12T02:53:40.490Z,928.26
2017-06-12T02:54:08.785Z,928.26
2017-06-12T02:54:37.004Z,928.23
2017-06-12T02:55:05.240Z,928.2
2017-06-12T02:55:33.501Z,928.23
2017-06-12T02:56:01.554Z,928.24
2017-06-12T02:56:29.781Z,928.22
2017-06-12T02:56:58.087Z,928.22
2017-06-12T02:57:26.420Z,928.2
2017-06-12T02:57:54.719Z,928.19
2017-06-12T02:59:06.022Z,928.18
2017-06-12T02:59:34.186Z,928.16
2017-06-12T03:00:02.479Z,928.13
2017-06-12T03:00:30.699Z,928.13
2017-06-12T03:00:58.928Z,928.11
2017-06-12T03:01:27.096Z,928.13
2017-06-12T03:01:55.338Z,928.11
2017-06-12T03:02:23.467Z,928.11
2017-06-12T03:02:51.772Z,928.06
2017-06-12T03:03:20.010Z,928.11
2017-06-12T03:03:48.208Z,928.06
2017-06-12T03:04:59.231Z,928.07
2017-06-12T03:05:27.497Z,928.09
2017-06-12T03:05:55.599Z,928.09
2017-06-12T03:06:23.915Z,928.08
2017-06-12T03:06:52.054Z,928.05
2017-06-12T03:07:20.316Z,928.11
2017-06-12T03:07:48.550Z,928.06
2017-06-12T03:08:16.681Z,928.06
2017-06-12T03:08:44.985Z,928.06
2017-06-12T03:09:13.128Z,928.06
2017-06-12T03:09:41.329Z,928.04
2017-06-12T03:10:52.632Z,928.02
2017-06-12T03:11:20.895Z,927.98
2017-06-12T03:11:48.995Z,927.98
2017-06-12T03:12:17.216Z,927.97
2017-06-12T03:12:45.454Z,927.98
2017-06-12T03:13:13.620Z,928
2017-06-12T03:13:41.759Z,928
2017-06-12T03:14:09.894Z,928
2017-06-12T03:14:38.199Z,927.98
2017-06-12T03:15:06.530Z,927.99
2017-06-12T03:15:34.832Z,927.98
2017-06-12T03:16:46.044Z,927.98
2017-06-12T03:17:14.212Z,927.96
2017-06-12T03:17:42.500Z,927.95
2017-06-12T03:18:10.626Z,927.97
2017-06-12T03:18:38.766Z,927.97
2017-06-12T03:19:06.839Z,927.95
2017-06-12T03:19:35.072Z,927.95
2017-06-12T03:20:03.195Z,927.96
2017-06-12T03:20:31.495Z,927.93
2017-06-12T03:20:59.637Z,927.96
2017-06-12T03:21:27.746Z,927.94
2017-06-12T03:22:39.047Z,927.98
2017-06-12T03:23:07.220Z,927.96
2017-06-12T03:23:35.509Z,927.95
2017-06-12T03:24:03.825Z,927.93
2017-06-12T03:24:32.057Z,927.96
2017-06-12T03:25:00.228Z,927.94
2017-06-12T03:25:28.373Z,927.94
2017-06-12T03:25:56.503Z,927.94
2017-06-12T03:26:24.798Z,927.92
2017-06-12T03:26:53.036Z,927.91
2017-06-12T03:27:21.235Z,927.9
2017-06-12T03:28:32.538Z,927.92
2017-06-12T03:29:00.799Z,927.88
2017-06-12T03:29:29.000Z,927.89
2017-06-12T03:29:57.121Z,927.85
2017-06-12T03:30:25.261Z,927.89
2017-06-12T03:30:53.518Z,927.86
2017-06-12T03:31:21.476Z,927.86
2017-06-12T03:31:49.510Z,927.88
2017-06-12T03:32:17.813Z,927.85
2017-06-12T03:32:46.052Z,927.86
2017-06-12T03:33:14.156Z,927.87
2017-06-12T03:34:25.366Z,927.85
2017-06-12T03:34:53.536Z,927.86
2017-06-12T03:35:21.829Z,927.87
2017-06-12T03:35:50.140Z,927.88
2017-06-12T03:36:18.282Z,927.88
2017-06-12T03:36:46.445Z,927.87
2017-06-12T03:37:14.681Z,927.9
2017-06-12T03:37:42.810Z,927.9
2017-06-12T03:38:11.114Z,927.86
2017-06-12T03:38:39.349Z,927.85
2017-06-12T03:39:07.469Z,927.84
2017-06-12T03:40:18.766Z,927.83
2017-06-12T03:40:46.938Z,927.84
2017-06-12T03:41:15.134Z,927.85
2017-06-12T03:41:43.264Z,927.86
2017-06-12T03:42:11.496Z,927.85
2017-06-12T03:42:39.760Z,927.81
2017-06-12T03:43:07.900Z,927.84
2017-06-12T03:43:36.027Z,927.81
2017-06-12T03:44:04.147Z,927.81
2017-06-12T03:44:32.484Z,927.83
2017-06-12T03:45:00.684Z,927.83
2017-06-12T03:46:11.892Z,927.83
2017-06-12T03:46:40.063Z,927.82
2017-06-12T03:47:08.353Z,927.8
2017-06-12T03:47:36.384Z,927.81
2017-06-12T03:48:04.621Z,927.82
2017-06-12T03:48:32.790Z,927.79
2017-06-12T03:49:00.933Z,927.81
2017-06-12T03:49:28.875Z,927.79
2017-06-12T03:49:57.088Z,927.8
2017-06-12T03:50:25.231Z,927.79
2017-06-12T03:50:53.243Z,927.8
2017-06-12T03:52:04.452Z,927.81
2017-06-12T03:52:32.627Z,927.78
2017-06-12T03:53:00.828Z,927.82
2017-06-12T03:53:28.961Z,927.8
2017-06-12T03:53:57.105Z,927.78
2017-06-12T03:54:25.268Z,927.78
2017-06-12T03:54:53.407Z,927.78
2017-06-12T03:55:21.634Z,927.8
2017-06-12T03:55:49.846Z,927.76
2017-06-12T03:56:17.995Z,927.78
2017-06-12T03:56:46.293Z,927.79
2017-06-12T03:57:57.594Z,927.8
2017-06-12T03:58:25.859Z,927.76
2017-06-12T03:58:54.155Z,927.77
2017-06-12T03:59:22.378Z,927.76
2017-06-12T03:59:50.514Z,927.76
2017-06-12T04:00:18.682Z,927.76
2017-06-12T04:00:46.923Z,927.76
2017-06-12T04:01:15.148Z,927.79
2017-06-12T04:01:43.454Z,927.79
2017-06-12T04:02:11.508Z,927.82
2017-06-12T04:02:39.609Z,927.8
2017-06-12T04:03:50.813Z,927.84
2017-06-12T04:04:19.078Z,927.87
2017-06-12T04:04:47.279Z,927.85
2017-06-12T04:05:15.594Z,927.85
2017-06-12T04:05:43.827Z,927.87
2017-06-12T04:06:12.002Z,927.88
2017-06-12T04:06:40.144Z,927.86
2017-06-12T04:07:08.181Z,927.85
2017-06-12T04:07:36.482Z,927.85
2017-06-12T04:08:04.815Z,927.87
2017-06-12T04:08:33.107Z,927.86
2017-06-12T04:09:44.233Z,927.85
2017-06-12T04:10:12.501Z,927.84
2017-06-12T04:10:40.795Z,927.89
2017-06-12T04:11:09.111Z,927.87
2017-06-12T04:11:37.344Z,927.89
2017-06-12T04:12:05.516Z,927.85
2017-06-12T04:12:33.652Z,927.86
2017-06-12T04:13:01.595Z,927.87
2017-06-12T04:13:29.896Z,927.85
2017-06-12T04:13:58.041Z,927.87
2017-06-12T04:14:26.248Z,927.84
2017-06-12T04:15:37.548Z,927.87
2017-06-12T04:16:05.718Z,927.84
2017-06-12T04:16:34.012Z,927.83
2017-06-12T04:17:02.328Z,927.85
2017-06-12T04:17:30.561Z,927.86
2017-06-12T04:17:58.729Z,927.84
2017-06-12T04:18:26.870Z,927.83
2017-06-12T04:18:54.816Z,927.87
2017-06-12T04:19:23.031Z,927.85
2017-06-12T04:19:51.269Z,927.83
2017-06-12T04:20:19.376Z,927.86
2017-06-12T04:21:30.591Z,927.86
2017-06-12T04:21:58.757Z,927.83
2017-06-12T04:22:26.866Z,927.84
2017-06-12T04:22:55.089Z,927.84
2017-06-12T04:23:23.229Z,927.84
2017-06-12T04:23:51.496Z,927.82
2017-06-12T04:24:19.634Z,927.83
2017-06-12T04:24:47.764Z,927.85
2017-06-12T04:25:16.065Z,927.85
2017-06-12T04:25:44.212Z,927.84
2017-06-12T04:26:12.413Z,927.87
2017-06-12T04:27:23.629Z,927.85
2017-06-12T04:27:51.889Z,927.88
2017-06-12T04:28:20.094Z,927.87
2017-06-12T04:28:48.315Z,927.87
2017-06-12T04:29:16.550Z,927.89
2017-06-12T04:29:44.818Z,927.9
2017-06-12T04:30:12.962Z,927.88
2017-06-12T04:30:40.999Z,927.87
2017-06-12T04:31:09.120Z,927.88
2017-06-12T04:31:37.358Z,927.91
2017-06-12T04:32:05.370Z,927.88
2017-06-12T04:33:16.580Z,927.89
2017-06-12T04:33:44.754Z,927.87
2017-06-12T04:34:12.974Z,927.88
2017-06-12T04:34:41.176Z,927.89
2017-06-12T04:35:09.411Z,927.86
2017-06-12T04:35:37.672Z,927.85
2017-06-12T04:36:05.810Z,927.87
2017-06-12T04:36:33.942Z,927.86
2017-06-12T04:37:02.151Z,927.85
2017-06-12T04:37:30.391Z,927.85
2017-06-12T04:37:58.684Z,927.81
2017-06-12T04:39:09.893Z,927.79
2017-06-12T04:39:38.156Z,927.83
2017-06-12T04:40:06.353Z,927.83
2017-06-12T04:40:34.571Z,927.84
2017-06-12T04:41:02.803Z,927.82
2017-06-12T04:41:31.066Z,927.81
2017-06-12T04:41:59.214Z,927.82
2017-06-12T04:42:27.346Z,927.81
2017-06-12T04:42:55.653Z,927.78
2017-06-12T04:43:23.980Z,927.74
2017-06-12T04:43:52.184Z,927.76
2017-06-12T04:45:03.483Z,927.74
2017-06-12T04:45:31.745Z,927.7
2017-06-12T04:45:59.948Z,927.74
2017-06-12T04:46:28.265Z,927.73
2017-06-12T04:46:56.494Z,927.72
2017-06-12T04:47:24.668Z,927.75
2017-06-12T04:47:52.807Z,927.75
2017-06-12T04:48:20.937Z,927.74
2017-06-12T04:48:49.241Z,927.74
2017-06-12T04:49:17.383Z,927.72
2017-06-12T04:49:45.686Z,927.71
2017-06-12T04:50:56.893Z,927.72
2017-06-12T04:51:25.162Z,927.71
2017-06-12T04:51:53.449Z,927.72
2017-06-12T04:52:21.766Z,927.71
2017-06-12T04:52:50.005Z,927.75
2017-06-12T04:53:18.174Z,927.74
2017-06-12T04:53:46.313Z,927.73
2017-06-12T04:54:14.435Z,927.73
2017-06-12T04:54:42.644Z,927.74
2017-06-12T04:55:10.977Z,927.75
2017-06-12T04:55:39.268Z,927.81
2017-06-12T04:56:50.567Z,927.79
2017-06-12T04:57:18.833Z,927.76
2017-06-12T04:57:47.030Z,927.74
2017-06-12T04:58:15.250Z,927.75
2017-06-12T04:58:43.386Z,927.72
2017-06-12T04:59:11.642Z,927.7
2017-06-12T04:59:39.782Z,927.75
2017-06-12T05:00:07.815Z,927.73
2017-06-12T05:00:36.116Z,927.74
2017-06-12T05:01:04.355Z,927.79
2017-06-12T05:01:32.650Z,927.75
2017-06-12T05:02:43.760Z,927.78
2017-06-12T05:03:12.027Z,927.79
2017-06-12T05:03:40.323Z,927.76
2017-06-12T05:04:08.644Z,927.72
2017-06-12T05:04:36.783Z,927.74
2017-06-12T05:05:05.050Z,927.73
2017-06-12T05:05:33.098Z,927.74
2017-06-12T05:06:01.130Z,927.72
2017-06-12T05:06:29.437Z,927.76
2017-06-12T05:06:57.678Z,927.76
2017-06-12T05:07:25.972Z,927.75
2017-06-12T05:08:37.179Z,927.74
2017-06-12T05:09:05.344Z,927.72
2017-06-12T05:09:33.541Z,927.7
2017-06-12T05:10:01.856Z,927.71
2017-06-12T05:10:29.988Z,927.7
2017-06-12T05:10:58.062Z,927.67
2017-06-12T05:11:26.111Z,927.68
2017-06-12T05:11:53.957Z,927.66
2017-06-12T05:12:22.259Z,927.67
2017-06-12T05:12:50.492Z,927.69
2017-06-12T05:13:18.690Z,927.68
2017-06-12T05:14:29.988Z,927.66
2017-06-12T05:14:58.163Z,927.69
2017-06-12T05:15:26.265Z,927.68
2017-06-12T05:15:54.579Z,927.67
2017-06-12T05:16:22.806Z,927.66
2017-06-12T05:16:50.974Z,927.68
2017-06-12T05:17:19.113Z,927.63
2017-06-12T05:17:47.339Z,927.63
2017-06-12T05:18:15.549Z,927.64
2017-06-12T05:18:43.882Z,927.62
2017-06-12T05:19:12.083Z,927.61
2017-06-12T05:20:23.390Z,927.64
2017-06-12T05:20:51.559Z,927.59
2017-06-12T05:21:19.850Z,927.59
2017-06-12T05:21:47.974Z,927.58
2017-06-12T05:22:16.116Z,927.61
2017-06-12T05:22:44.379Z,927.59
2017-06-12T05:23:12.616Z,927.57
2017-06-12T05:23:40.745Z,927.55
2017-06-12T05:24:09.063Z,927.53
2017-06-12T05:24:37.102Z,927.57
2017-06-12T05:25:05.206Z,927.54
2017-06-12T05:26:16.315Z,927.54
2017-06-12T05:26:44.485Z,927.53
2017-06-12T05:27:12.592Z,927.52
2017-06-12T05:27:40.718Z,927.52
2017-06-12T05:28:08.861Z,927.55
2017-06-12T05:28:37.123Z,927.53
2017-06-12T05:29:05.261Z,927.54
2017-06-12T05:29:33.479Z,927.57
2017-06-12T05:30:01.780Z,927.56
2017-06-12T05:30:30.015Z,927.54
2017-06-12T05:30:58.310Z,927.54
2017-06-12T05:32:09.418Z,927.51
2017-06-12T05:32:37.586Z,927.52
2017-06-12T05:33:05.875Z,927.49
2017-06-12T05:33:34.001Z,927.49
2017-06-12T05:34:02.139Z,927.46
2017-06-12T05:34:30.399Z,927.48
2017-06-12T05:34:58.444Z,927.5
2017-06-12T05:35:26.568Z,927.42
2017-06-12T05:35:54.868Z,927.41
2017-06-12T05:36:23.199Z,927.45
2017-06-12T05:36:51.399Z,927.41
2017-06-12T05:38:02.509Z,927.4
2017-06-12T05:38:30.770Z,927.36
2017-06-12T05:38:58.777Z,927.35
2017-06-12T05:39:27.091Z,927.36
2017-06-12T05:39:55.131Z,927.38
2017-06-12T05:40:23.392Z,927.33
2017-06-12T05:40:51.536Z,927.34
2017-06-12T05:41:19.665Z,927.34
2017-06-12T05:41:47.685Z,927.34
2017-06-12T05:42:15.826Z,927.33
2017-06-12T05:42:44.121Z,927.31
2017-06-12T05:43:55.225Z,927.29
2017-06-12T05:44:23.396Z,927.24
2017-06-12T05:44:51.688Z,927.25
2017-06-12T05:45:19.717Z,927.23
2017-06-12T05:45:47.858Z,927.26
2017-06-12T05:46:15.922Z,927.23
2017-06-12T05:46:43.986Z,927.25
2017-06-12T05:47:12.096Z,927.25
2017-06-12T05:47:40.118Z,927.23
2017-06-12T05:48:08.355Z,927.25
2017-06-12T05:48:36.553Z,927.2
2017-06-12T05:49:47.756Z,927.24
2017-06-12T05:50:15.926Z,927.2
2017-06-12T05:50:44.217Z,927.2
2017-06-12T05:51:12.341Z,927.2
2017-06-12T05:51:40.474Z,927.18
2017-06-12T05:52:08.735Z,927.21
2017-06-12T05:52:36.963Z,927.14
2017-06-12T05:53:05.190Z,927.16
2017-06-12T05:53:33.399Z,927.16
2017-06-12T05:54:01.639Z,927.17
2017-06-12T05:54:29.935Z,927.16
2017-06-12T05:55:40.962Z,927.12
2017-06-12T05:56:09.037Z,927.18
2017-06-12T05:56:37.229Z,927.17
2017-06-12T05:57:05.360Z,927.2
2017-06-12T05:57:33.499Z,927.19
2017-06-12T05:58:01.661Z,927.16
2017-06-12T05:58:29.704Z,927.18
2017-06-12T05:58:57.734Z,927.19
2017-06-12T05:59:25.936Z,927.13
2017-06-12T05:59:54.263Z,927.13
2017-06-12T06:00:22.554Z,927.17
2017-06-12T06:01:33.692Z,927.21
2017-06-12T06:02:01.856Z,927.18
2017-06-12T06:02:30.049Z,927.14
2017-06-12T06:02:58.175Z,927.11
2017-06-12T06:03:26.405Z,927.14
2017-06-12T06:03:54.661Z,927.11
2017-06-12T06:04:22.806Z,927.13
2017-06-12T06:04:50.938Z,927.11
2017-06-12T06:05:19.237Z,927.1
2017-06-12T06:05:47.559Z,927.12
2017-06-12T06:06:15.758Z,927.14
2017-06-12T06:07:26.864Z,927.14
2017-06-12T06:07:55.124Z,927.13
2017-06-12T06:08:23.322Z,927.16
2017-06-12T06:08:51.536Z,927.13
2017-06-12T06:09:19.668Z,927.15
2017-06-12T06:09:47.645Z,927.16
2017-06-12T06:10:15.786Z,927.17
2017-06-12T06:10:43.914Z,927.16
2017-06-12T06:11:12.217Z,927.17
2017-06-12T06:11:40.460Z,927.16
2017-06-12T06:12:08.560Z,927.18
2017-06-12T06:13:19.762Z,927.21
2017-06-12T06:13:47.932Z,927.21
2017-06-12T06:14:16.221Z,927.2
2017-06-12T06:14:44.249Z,927.17
2017-06-12T06:15:12.292Z,927.17
2017-06-12T06:15:40.452Z,927.17
2017-06-12T06:16:08.588Z,927.19
2017-06-12T06:16:36.808Z,927.17
2017-06-12T06:17:05.017Z,927.17
2017-06-12T06:17:33.161Z,927.15
2017-06-12T06:18:01.456Z,927.16
2017-06-12T06:19:12.756Z,927.16
2017-06-12T06:19:41.015Z,927.17
2017-06-12T06:20:09.303Z,927.16
2017-06-12T06:20:37.521Z,927.17
2017-06-12T06:21:05.674Z,927.14
2017-06-12T06:21:33.752Z,927.13
2017-06-12T06:22:01.886Z,927.12
2017-06-12T06:22:30.021Z,927.12
2017-06-12T06:22:58.136Z,927.08
2017-06-12T06:23:26.374Z,927.11
2017-06-12T06:23:54.663Z,927.09
2017-06-12T06:25:05.957Z,927.07
2017-06-12T06:25:34.127Z,927.1
2017-06-12T06:26:02.228Z,927.08
2017-06-12T06:26:30.452Z,927.07
2017-06-12T06:26:58.684Z,927.08
2017-06-12T06:27:26.661Z,927.11
2017-06-12T06:27:54.800Z,927.11
2017-06-12T06:28:23.025Z,927.1
2017-06-12T06:28:51.326Z,927.1
2017-06-12T06:29:19.560Z,927.12
2017-06-12T06:29:47.856Z,927.1
2017-06-12T06:30:58.967Z,927.11
2017-06-12T06:31:27.136Z,927.13
2017-06-12T06:31:55.242Z,927.12
2017-06-12T06:32:23.461Z,927.11
2017-06-12T06:32:51.598Z,927.12
2017-06-12T06:33:19.570Z,927.11
2017-06-12T06:33:47.803Z,927.09
2017-06-12T06:34:16.035Z,927.11
2017-06-12T06:34:44.338Z,927.1
2017-06-12T06:35:12.578Z,927.07
2017-06-12T06:35:40.877Z,927.05
2017-06-12T06:36:51.990Z,927.1
2017-06-12T06:37:20.253Z,927.04
2017-06-12T06:37:48.544Z,927.05
2017-06-12T06:38:16.703Z,927.04
2017-06-12T06:38:44.842Z,927.03
2017-06-12T06:39:13.011Z,927.02
2017-06-12T06:39:41.249Z,927.01
2017-06-12T06:40:09.382Z,926.98
2017-06-12T06:40:37.599Z,926.97
2017-06-12T06:41:05.933Z,926.97
2017-06-12T06:41:34.233Z,926.97